Terminal Aerodrome Forecast
Issued by NWS Melbourne, FL

Home | Current Version | Previous Version | Text Only | Print | Product List | Glossary On
Versions: 1 2 3 4 5 6 7 8 9 10 11 12 13 14 15 16 17 18 19 20 21 22 23 24 25
260
FTUS42 KMLB 102327
TAFMCO
TAF
KMCO 102327Z 1100/1124 04010KT P6SM SCT040
     FM110400 03006KT P6SM BKN040
     FM111500 09012KT P6SM BKN035=

USA.gov is the U.S. government's official web portal to all federal, state and local government web resources and services.